createdAt,value
2022-09-09T00:03:01.816Z,6.00
2022-09-09T00:08:18.720Z,6.10
2022-09-09T00:13:29.168Z,5.20
2022-09-09T00:18:53.464Z,5.80
2022-09-09T00:24:00.138Z,5.50
2022-09-09T00:29:23.165Z,5.50
2022-09-09T00:34:30.566Z,5.50
2022-09-09T00:39:42.743Z,6.70
2022-09-09T00:45:02.333Z,5.70
2022-09-09T00:50:25.659Z,5.60
2022-09-09T00:55:41.554Z,5.50
2022-09-09T01:00:52.113Z,5.90
2022-09-09T01:06:17.063Z,6.50
2022-09-09T01:11:26.809Z,5.00
2022-09-09T01:16:35.522Z,5.90
2022-09-09T01:21:49.573Z,5.90
2022-09-09T01:26:59.236Z,5.90
2022-09-09T01:32:44.128Z,6.20
2022-09-09T01:37:51.461Z,5.80
2022-09-09T01:42:58.481Z,6.40
2022-09-09T01:48:04.907Z,6.70
2022-09-09T01:53:26.571Z,6.40
2022-09-09T01:58:40.442Z,6.00
2022-09-09T02:03:52.923Z,6.60
2022-09-09T02:09:02.109Z,7.10
2022-09-09T02:14:13.396Z,7.10
2022-09-09T02:19:27.439Z,7.60
2022-09-09T02:25:00.575Z,7.40
2022-09-09T02:30:10.629Z,7.30
2022-09-09T02:35:27.534Z,7.60
2022-09-09T02:40:33.589Z,7.00
2022-09-09T02:45:50.742Z,7.30
2022-09-09T02:51:06.093Z,7.90
2022-09-09T02:56:17.873Z,7.10
2022-09-09T03:01:25.265Z,6.90
2022-09-09T03:06:31.765Z,7.70
2022-09-09T03:11:45.134Z,7.30
2022-09-09T03:16:51.272Z,6.30
2022-09-09T03:21:57.167Z,6.30
2022-09-09T03:27:03.270Z,6.80
2022-09-09T03:32:11.675Z,6.30
2022-09-09T03:37:18.737Z,6.00
2022-09-09T03:42:25.155Z,6.30
2022-09-09T03:47:32.624Z,5.80
2022-09-09T03:57:54.198Z,5.90
2022-09-09T04:03:00.062Z,5.80
2022-09-09T04:08:05.809Z,6.50
2022-09-09T04:13:13.463Z,5.80
2022-09-09T04:18:20.371Z,5.30
2022-09-09T04:23:30.409Z,4.70
2022-09-09T04:28:38.014Z,5.70
2022-09-09T04:33:48.695Z,5.40
2022-09-09T04:38:55.295Z,4.40
2022-09-09T04:44:01.789Z,6.00
2022-09-09T04:49:09.223Z,4.20
2022-09-09T04:54:17.898Z,4.50
2022-09-09T04:59:24.256Z,4.20
2022-09-09T05:04:34.116Z,4.50
2022-09-09T05:09:40.087Z,4.90
2022-09-09T05:14:46.523Z,4.50
2022-09-09T05:19:52.527Z,4.10
2022-09-09T05:24:59.496Z,3.60
2022-09-09T05:30:06.617Z,3.70
2022-09-09T05:35:14.638Z,3.70
2022-09-09T05:40:22.592Z,3.90
2022-09-09T05:45:28.893Z,3.60
2022-09-09T05:50:34.857Z,3.20
2022-09-09T05:55:40.720Z,3.50
2022-09-09T06:00:47.306Z,3.60
2022-09-09T06:06:01.790Z,3.30
2022-09-09T06:11:09.353Z,3.50
2022-09-09T06:16:19.316Z,3.40
2022-09-09T06:21:27.182Z,3.10
2022-09-09T06:26:35.438Z,3.40
2022-09-09T06:31:42.481Z,3.50
2022-09-09T06:37:00.958Z,3.30
2022-09-09T06:42:17.497Z,3.40
2022-09-09T06:47:31.163Z,3.40
2022-09-09T06:52:37.884Z,3.20
2022-09-09T06:57:44.366Z,3.60
2022-09-09T07:02:56.534Z,3.80
2022-09-09T07:08:03.465Z,4.40
2022-09-09T07:13:10.928Z,4.20
2022-09-09T07:18:16.888Z,4.30
2022-09-09T07:23:23.423Z,4.50
2022-09-09T07:28:31.617Z,4.30
2022-09-09T07:33:38.060Z,4.40
2022-09-09T07:38:48.898Z,4.80
2022-09-09T07:43:55.818Z,5.00
2022-09-09T07:49:03.231Z,4.60
2022-09-09T07:54:13.910Z,5.30
2022-09-09T07:59:21.672Z,5.80
2022-09-09T08:04:29.159Z,5.10
2022-09-09T08:10:09.158Z,5.20
2022-09-09T08:15:16.623Z,5.30
2022-09-09T08:20:24.234Z,5.80
2022-09-09T08:25:30.971Z,4.90
2022-09-09T08:30:36.892Z,5.80
2022-09-09T08:35:53.801Z,6.40
2022-09-09T08:41:14.273Z,6.00
2022-09-09T08:46:26.736Z,5.70
2022-09-09T08:51:34.566Z,6.30
2022-09-09T08:56:40.851Z,6.40
2022-09-09T09:02:03.067Z,6.50
2022-09-09T09:07:32.690Z,6.70
2022-09-09T09:12:44.584Z,6.80
2022-09-09T09:17:52.297Z,11.30
2022-09-09T09:23:04.581Z,7.00
2022-09-09T09:28:20.327Z,6.80
2022-09-09T09:33:32.917Z,6.80
2022-09-09T09:44:23.313Z,16.00
2022-09-09T09:49:29.397Z,7.90
2022-09-09T09:54:38.966Z,7.20
2022-09-09T09:59:46.734Z,8.80
2022-09-09T10:05:07.537Z,8.20
2022-09-09T10:10:21.093Z,9.10
2022-09-09T10:15:37.964Z,9.40
2022-09-09T10:20:55.298Z,8.70
2022-09-09T10:26:18.402Z,9.20
2022-09-09T10:31:35.046Z,9.70
2022-09-09T10:36:45.352Z,9.10
2022-09-09T10:42:01.023Z,9.50
2022-09-09T10:47:37.012Z,10.50
2022-09-09T10:52:52.045Z,10.50
2022-09-09T10:58:01.810Z,10.70
2022-09-09T11:03:14.419Z,10.50
2022-09-09T11:13:36.500Z,12.00
2022-09-09T11:18:44.107Z,11.40
2022-09-09T11:23:55.701Z,10.50
2022-09-09T11:29:34.416Z,11.90
2022-09-09T11:34:57.631Z,11.80
2022-09-09T11:40:20.312Z,11.70
2022-09-09T11:45:32.017Z,14.20
2022-09-09T11:50:41.162Z,18.50
2022-09-09T11:55:47.354Z,14.10
2022-09-09T12:08:07.438Z,14.70
2022-09-09T12:13:21.240Z,14.00
2022-09-09T12:18:51.665Z,13.80
2022-09-09T12:24:07.893Z,14.90
2022-09-09T12:29:45.522Z,14.70
2022-09-09T12:41:41.949Z,19.50
2022-09-09T12:46:49.426Z,14.80
2022-09-09T12:51:55.369Z,14.70
2022-09-09T12:57:02.386Z,14.40
2022-09-09T13:02:21.586Z,14.70
2022-09-09T13:07:27.499Z,15.40
2022-09-09T13:12:33.614Z,12.00
2022-09-09T13:17:39.772Z,15.40
2022-09-09T13:22:45.650Z,13.60
2022-09-09T13:28:03.828Z,14.50
2022-09-09T13:33:24.124Z,14.80
2022-09-09T13:38:32.566Z,14.80
2022-09-09T13:43:44.641Z,14.40
2022-09-09T13:48:58.538Z,14.60
2022-09-09T13:54:07.115Z,15.50
2022-09-09T13:59:15.385Z,14.30
2022-09-09T14:04:24.488Z,14.10
2022-09-09T14:09:30.602Z,14.60
2022-09-09T14:14:37.184Z,14.80
2022-09-09T14:19:43.905Z,14.20
2022-09-09T14:24:50.209Z,14.20
2022-09-09T14:29:56.311Z,15.80
2022-09-09T14:35:02.549Z,15.60
2022-09-09T14:40:09.768Z,15.10
2022-09-09T14:45:15.978Z,13.90
2022-09-09T14:50:22.873Z,14.60
2022-09-09T14:55:30.251Z,14.80
2022-09-09T15:00:37.269Z,15.00
2022-09-09T15:05:44.000Z,16.30
2022-09-09T15:10:51.177Z,15.50
2022-09-09T15:15:58.107Z,15.90
2022-09-09T15:21:05.928Z,15.10
2022-09-09T15:26:15.032Z,16.50
2022-09-09T15:31:23.121Z,16.90
2022-09-09T15:36:31.186Z,13.80
2022-09-09T15:41:37.224Z,13.40
2022-09-09T15:46:45.557Z,14.20
2022-09-09T15:51:54.445Z,14.30
2022-09-09T15:57:01.865Z,13.90
2022-09-09T16:02:08.083Z,14.10
2022-09-09T16:07:14.573Z,14.60
2022-09-09T16:12:20.605Z,13.90
2022-09-09T16:17:26.651Z,14.50
2022-09-09T16:22:32.716Z,14.80
2022-09-09T16:27:38.624Z,15.90
2022-09-09T16:32:44.475Z,15.20
2022-09-09T16:37:50.218Z,15.10
2022-09-09T16:42:56.471Z,15.10
2022-09-09T16:48:02.660Z,17.50
2022-09-09T16:53:09.892Z,15.00
2022-09-09T16:58:15.632Z,14.60
2022-09-09T17:03:21.935Z,15.30
2022-09-09T17:08:28.022Z,16.60
2022-09-09T17:13:34.181Z,15.60
2022-09-09T17:18:41.103Z,16.10
2022-09-09T17:23:47.890Z,15.70
2022-09-09T17:28:59.117Z,16.30
2022-09-09T17:34:06.043Z,15.40
2022-09-09T17:39:12.004Z,14.80
2022-09-09T17:44:20.240Z,14.60
2022-09-09T17:49:26.011Z,15.10
2022-09-09T17:54:33.899Z,13.90
2022-09-09T17:59:39.966Z,13.50
2022-09-09T18:04:47.325Z,13.50
2022-09-09T18:09:53.419Z,13.50
2022-09-09T18:15:03.795Z,12.20
2022-09-09T18:20:11.162Z,13.80
2022-09-09T18:25:17.411Z,13.90
2022-09-09T18:30:23.635Z,11.90
2022-09-09T18:35:30.143Z,12.90
2022-09-09T18:40:35.968Z,12.50
2022-09-09T18:45:42.257Z,12.10
2022-09-09T18:50:48.409Z,12.30
2022-09-09T18:56:02.157Z,12.60
2022-09-09T19:01:12.633Z,12.60
2022-09-09T19:06:20.305Z,13.10
2022-09-09T19:11:27.981Z,14.40
2022-09-09T19:16:35.525Z,12.90
2022-09-09T19:21:43.532Z,12.50
2022-09-09T19:26:52.176Z,12.00
2022-09-09T19:37:26.629Z,10.50
2022-09-09T19:42:32.958Z,12.10
2022-09-09T19:47:39.194Z,10.80
2022-09-09T19:52:44.995Z,10.00
2022-09-09T19:57:51.125Z,10.90
2022-09-09T20:03:18.060Z,10.20
2022-09-09T20:08:27.396Z,8.90
2022-09-09T20:13:35.317Z,10.20
2022-09-09T20:18:43.120Z,9.20
2022-09-09T20:23:50.114Z,9.10
2022-09-09T20:28:56.577Z,9.00
2022-09-09T20:34:04.124Z,10.10
2022-09-09T20:39:12.341Z,10.40
2022-09-09T20:44:19.950Z,9.20
2022-09-09T20:49:26.138Z,8.40
2022-09-09T20:54:32.197Z,9.30
2022-09-09T20:59:38.437Z,8.80
2022-09-09T21:04:47.745Z,8.50
2022-09-09T21:09:53.862Z,8.00
2022-09-09T21:15:00.760Z,8.40
2022-09-09T21:20:08.798Z,8.70
2022-09-09T21:25:15.433Z,7.70
2022-09-09T21:30:28.680Z,7.90
2022-09-09T21:35:41.294Z,8.00
2022-09-09T21:40:51.543Z,7.90
2022-09-09T21:45:58.301Z,7.00
2022-09-09T21:51:07.919Z,7.10
2022-09-09T21:56:17.273Z,8.20
2022-09-09T22:01:24.906Z,6.70
2022-09-09T22:06:31.825Z,6.80
2022-09-09T22:11:38.254Z,6.80
2022-09-09T22:16:44.421Z,7.00
2022-09-09T22:21:50.891Z,6.10
2022-09-09T22:26:57.114Z,5.80
2022-09-09T22:32:03.449Z,6.10
2022-09-09T22:37:10.055Z,7.80
2022-09-09T22:42:16.059Z,7.60
2022-09-09T22:47:22.197Z,7.10
2022-09-09T22:52:31.006Z,8.00
2022-09-09T22:57:37.365Z,9.50
2022-09-09T23:02:43.561Z,8.90
2022-09-09T23:07:50.217Z,8.00
2022-09-09T23:12:56.670Z,7.40
2022-09-09T23:18:03.047Z,8.20
2022-09-09T23:23:11.622Z,8.40
2022-09-09T23:28:17.725Z,7.10
2022-09-09T23:33:24.335Z,7.70
2022-09-09T23:38:30.413Z,7.80
2022-09-09T23:43:39.574Z,7.40
2022-09-09T23:48:45.831Z,6.10
2022-09-09T23:53:53.954Z,6.30
2022-09-09T23:59:00.429Z,7.10
